Pagrindinis puslapis
METAR-TAF:

METAR-TAF

Oro uostai :

Phitsanulok, Tailandas

platuma: 16-46-23N, ilguma: 100-16-56E, Aukštis: 47 m

Dabartinis oras

Ataskaita buvo paskelbta 56 minutes, ne 13:00 UTC
Ramus vėjas
Temperatūra 25°C
Drėgmė 83%
Slėgis 1012 hPa
Matomumas 10 km arba daugiau
nėra debesų žemiau 1500 m ir nėra kamuolinių lietaus debesų

METAR: VTPP 151300Z 00000KT CAVOK 25/22 Q1012 NOSIG

Laikas: 20:56 (13:56 UTC)

Prognozė

Ataskaita buvo paskelbta 2 valandos ir 56 minutes, ne 11:00 UTC
Prognozė galioja nuo 15 metu 12 UTC su 16 metu 12 UTC
Vėjas 5 kt iš Vakarų
Matomumas 10 km arba daugiau
Mažai debesys ne aukštis 2500 ft

TAF: VTPP 151100Z 1512/1612 28005KT 9999 FEW025

Orai ataskaitas ir orų prognozės (METAR, TAF).

turimą stotys yra geltonos ir raudonos taškus žemėlapyje.

Perkelti pele per norėdami pamatyti stoties vardą.

Tada spustelėkite, norėdami matyti oro stebėjimo ir prognozės.

Norėdami pakeisti žemėlapį: spustelėkite ant žalios mygtukų su juodo kryžiaus žemyn,; žalią mygtuką su brūkšneliu, jei norite nutolinti; arba žalių rodyklių gretimoms žemėlapius.


METAR-TAF: